ΕΜΥ, Εθνική Μετεωρολογική Υπηρεσία - Δελτία Καιρού, Προγνώσεις

ΑΕΡΟΝΑΥΤΙΛΙΑ

GREEK AIRPORTS CODES

TAF LGKY 130700Z 1309/1318 VRB05KT 9999 FEW020 BECMG 1309/1311 23010KT BECMG 1313/1315 FEW020 BKN050=

EUROPEAN AIRPORTS CODES